Wilton, New Hampshire
Current Conditions -  °F | °C
As of 7:51 AM on Friday 19 Dec 2014 (Local Time) from KASH Reporting Station
Overcast Overcast  
Wind Chill: 24°   Ceiling: 3000
Heat Index: 33°   Visibility: 10mi
Dew Point: 22°   Wind: 13mph
Humidity: 65%   Direction: 310°NW
Pressure: 29.93"   Gusts: 18mph
Location:  42.85°N, 71.74°W
Report Text: KASH 191251Z 31011G16KT 10SM OVC030 01/M06 A2993 RMK AO2 T00051055 SLP389
Loading
Personal Weather Stations






























Interactive Weather Map New forecast layout! Learn more

10-Day Weather Forecast

Advertisements
Track Severe Weather on mobile